sensor_id;sensor_type;location;lat;lon;timestamp;pressure;altitude;pressure_sealevel;temperature;humidity
46087;BME280;31824;49.648;8.640;2024-03-08T00:01:53;100355.00;;;4.68;100.00
46087;BME280;31824;49.648;8.640;2024-03-08T00:04:56;100357.63;;;4.68;100.00
46087;BME280;31824;49.648;8.640;2024-03-08T00:07:58;100356.75;;;4.46;100.00
46087;BME280;31824;49.648;8.640;2024-03-08T00:11:01;100357.31;;;4.44;100.00
46087;BME280;31824;49.648;8.640;2024-03-08T00:14:03;100352.13;;;4.36;100.00
46087;BME280;31824;49.648;8.640;2024-03-08T00:17:08;100353.03;;;4.44;100.00
46087;BME280;31824;49.648;8.640;2024-03-08T00:20:12;100351.00;;;4.42;100.00
46087;BME280;31824;49.648;8.640;2024-03-08T00:23:15;100350.66;;;4.24;100.00
46087;BME280;31824;49.648;8.640;2024-03-08T00:26:17;100349.59;;;4.15;100.00
46087;BME280;31824;49.648;8.640;2024-03-08T00:29:19;100345.28;;;4.30;100.00
46087;BME280;31824;49.648;8.640;2024-03-08T00:32:20;100347.31;;;4.25;100.00
46087;BME280;31824;49.648;8.640;2024-03-08T00:35:27;100339.34;;;4.16;100.00
46087;BME280;31824;49.648;8.640;2024-03-08T00:38:29;100328.59;;;4.06;100.00
46087;BME280;31824;49.648;8.640;2024-03-08T00:41:31;100326.53;;;4.11;100.00
46087;BME280;31824;49.648;8.640;2024-03-08T00:44:32;100328.00;;;4.16;100.00
46087;BME280;31824;49.648;8.640;2024-03-08T00:47:35;100320.00;;;4.21;100.00
46087;BME280;31824;49.648;8.640;2024-03-08T00:50:38;100318.00;;;4.04;100.00
46087;BME280;31824;49.648;8.640;2024-03-08T00:53:40;100306.69;;;4.04;100.00
46087;BME280;31824;49.648;8.640;2024-03-08T00:56:42;100311.69;;;4.02;100.00
46087;BME280;31824;49.648;8.640;2024-03-08T00:59:44;100298.53;;;4.08;100.00
46087;BME280;31824;49.648;8.640;2024-03-08T01:02:47;100300.34;;;4.09;100.00
46087;BME280;31824;49.648;8.640;2024-03-08T01:05:50;100295.91;;;4.01;100.00
46087;BME280;31824;49.648;8.640;2024-03-08T01:08:53;100288.84;;;4.07;100.00
46087;BME280;31824;49.648;8.640;2024-03-08T01:11:55;100280.28;;;4.22;100.00
46087;BME280;31824;49.648;8.640;2024-03-08T01:14:57;100285.13;;;4.05;100.00
46087;BME280;31824;49.648;8.640;2024-03-08T01:18:00;100271.75;;;4.16;100.00
46087;BME280;31824;49.648;8.640;2024-03-08T01:21:04;100268.06;;;4.07;100.00
46087;BME280;31824;49.648;8.640;2024-03-08T01:24:06;100274.41;;;3.95;100.00
46087;BME280;31824;49.648;8.640;2024-03-08T01:27:08;100265.28;;;4.05;100.00
46087;BME280;31824;49.648;8.640;2024-03-08T01:30:11;100266.56;;;4.09;100.00
46087;BME280;31824;49.648;8.640;2024-03-08T01:33:13;100269.31;;;4.25;100.00
46087;BME280;31824;49.648;8.640;2024-03-08T01:36:16;100259.47;;;4.22;100.00
46087;BME280;31824;49.648;8.640;2024-03-08T01:39:20;100258.41;;;3.92;100.00
46087;BME280;31824;49.648;8.640;2024-03-08T01:42:23;100263.47;;;3.83;100.00
46087;BME280;31824;49.648;8.640;2024-03-08T01:45:25;100251.59;;;3.85;100.00
46087;BME280;31824;49.648;8.640;2024-03-08T01:48:27;100249.91;;;3.85;100.00
46087;BME280;31824;49.648;8.640;2024-03-08T01:51:32;100256.22;;;3.80;100.00
46087;BME280;31824;49.648;8.640;2024-03-08T01:54:34;100246.41;;;3.70;100.00
46087;BME280;31824;49.648;8.640;2024-03-08T01:57:37;100248.44;;;3.73;100.00
46087;BME280;31824;49.648;8.640;2024-03-08T02:00:40;100245.66;;;3.64;100.00
46087;BME280;31824;49.648;8.640;2024-03-08T02:03:44;100238.22;;;3.60;100.00
46087;BME280;31824;49.648;8.640;2024-03-08T02:06:48;100239.53;;;3.71;100.00
46087;BME280;31824;49.648;8.640;2024-03-08T02:09:50;100239.16;;;3.53;100.00
46087;BME280;31824;49.648;8.640;2024-03-08T02:12:52;100240.84;;;3.38;100.00
46087;BME280;31824;49.648;8.640;2024-03-08T02:15:55;100242.53;;;3.38;100.00
46087;BME280;31824;49.648;8.640;2024-03-08T02:18:57;100245.13;;;3.38;100.00
46087;BME280;31824;49.648;8.640;2024-03-08T02:22:01;100241.59;;;3.59;100.00
46087;BME280;31824;49.648;8.640;2024-03-08T02:25:06;100238.63;;;3.34;100.00
46087;BME280;31824;49.648;8.640;2024-03-08T02:28:10;100253.47;;;3.21;100.00
46087;BME280;31824;49.648;8.640;2024-03-08T02:31:12;100250.09;;;3.22;100.00
46087;BME280;31824;49.648;8.640;2024-03-08T02:34:14;100242.88;;;3.19;100.00
46087;BME280;31824;49.648;8.640;2024-03-08T02:37:17;100240.09;;;3.18;100.00
46087;BME280;31824;49.648;8.640;2024-03-08T02:40:19;100241.78;;;3.17;100.00
46087;BME280;31824;49.648;8.640;2024-03-08T02:43:21;100243.25;;;3.08;100.00
46087;BME280;31824;49.648;8.640;2024-03-08T02:46:24;100243.25;;;3.08;100.00
46087;BME280;31824;49.648;8.640;2024-03-08T02:49:26;100236.56;;;2.96;100.00
46087;BME280;31824;49.648;8.640;2024-03-08T02:52:32;100232.47;;;2.91;100.00
46087;BME280;31824;49.648;8.640;2024-03-08T02:55:35;100231.91;;;2.86;100.00
46087;BME280;31824;49.648;8.640;2024-03-08T02:58:37;100230.03;;;2.78;100.00
46087;BME280;31824;49.648;8.640;2024-03-08T03:01:39;100229.09;;;2.70;100.00
46087;BME280;31824;49.648;8.640;2024-03-08T03:04:41;100232.81;;;2.79;100.00
46087;BME280;31824;49.648;8.640;2024-03-08T03:07:44;100229.25;;;2.64;100.00
46087;BME280;31824;49.648;8.640;2024-03-08T03:10:46;100234.78;;;2.53;100.00
46087;BME280;31824;49.648;8.640;2024-03-08T03:13:49;100221.84;;;2.53;100.00
46087;BME280;31824;49.648;8.640;2024-03-08T03:16:51;100219.34;;;2.33;100.00
46087;BME280;31824;49.648;8.640;2024-03-08T03:19:53;100224.81;;;2.70;100.00
46087;BME280;31824;49.648;8.640;2024-03-08T03:22:56;100217.06;;;2.78;100.00
46087;BME280;31824;49.648;8.640;2024-03-08T03:25:58;100219.97;;;2.52;100.00
46087;BME280;31824;49.648;8.640;2024-03-08T03:29:01;100209.00;;;2.47;100.00
46087;BME280;31824;49.648;8.640;2024-03-08T03:32:04;100214.31;;;2.27;100.00
46087;BME280;31824;49.648;8.640;2024-03-08T03:35:06;100205.03;;;2.15;100.00
46087;BME280;31824;49.648;8.640;2024-03-08T03:38:10;100206.56;;;2.27;100.00
46087;BME280;31824;49.648;8.640;2024-03-08T03:41:13;100210.69;;;2.47;100.00
46087;BME280;31824;49.648;8.640;2024-03-08T03:44:16;100204.84;;;2.77;100.00
46087;BME280;31824;49.648;8.640;2024-03-08T03:47:18;100202.97;;;2.68;100.00
46087;BME280;31824;49.648;8.640;2024-03-08T03:50:20;100206.28;;;2.53;100.00
46087;BME280;31824;49.648;8.640;2024-03-08T03:53:24;100210.69;;;2.54;100.00
46087;BME280;31824;49.648;8.640;2024-03-08T03:56:27;100206.78;;;2.43;100.00
46087;BME280;31824;49.648;8.640;2024-03-08T03:59:29;100198.34;;;2.17;100.00
46087;BME280;31824;49.648;8.640;2024-03-08T04:02:31;100205.41;;;2.18;100.00
46087;BME280;31824;49.648;8.640;2024-03-08T04:05:32;100198.72;;;2.20;100.00
46087;BME280;31824;49.648;8.640;2024-03-08T04:08:36;100200.47;;;1.92;100.00
46087;BME280;31824;49.648;8.640;2024-03-08T04:11:37;100197.06;;;1.79;100.00
46087;BME280;31824;49.648;8.640;2024-03-08T04:14:42;100193.75;;;1.80;100.00
46087;BME280;31824;49.648;8.640;2024-03-08T04:17:44;100194.75;;;1.95;100.00
46087;BME280;31824;49.648;8.640;2024-03-08T04:20:48;100191.41;;;1.61;100.00
46087;BME280;31824;49.648;8.640;2024-03-08T04:23:51;100198.19;;;1.54;100.00
46087;BME280;31824;49.648;8.640;2024-03-08T04:26:53;100186.41;;;1.63;100.00
46087;BME280;31824;49.648;8.640;2024-03-08T04:29:54;100184.84;;;1.50;100.00
46087;BME280;31824;49.648;8.640;2024-03-08T04:32:56;100183.69;;;1.41;100.00
46087;BME280;31824;49.648;8.640;2024-03-08T04:35:58;100176.75;;;1.55;100.00
46087;BME280;31824;49.648;8.640;2024-03-08T04:39:02;100176.03;;;1.56;100.00
46087;BME280;31824;49.648;8.640;2024-03-08T04:42:05;100179.78;;;1.65;100.00
46087;BME280;31824;49.648;8.640;2024-03-08T04:45:11;100172.94;;;1.38;100.00
46087;BME280;31824;49.648;8.640;2024-03-08T04:48:13;100166.84;;;1.38;100.00
46087;BME280;31824;49.648;8.640;2024-03-08T04:51:16;100169.47;;;1.45;100.00
46087;BME280;31824;49.648;8.640;2024-03-08T04:54:19;100166.84;;;1.10;100.00
46087;BME280;31824;49.648;8.640;2024-03-08T04:57:21;100163.78;;;1.55;100.00
46087;BME280;31824;49.648;8.640;2024-03-08T05:00:23;100158.28;;;1.31;100.00
46087;BME280;31824;49.648;8.640;2024-03-08T05:03:25;100160.03;;;1.18;100.00
46087;BME280;31824;49.648;8.640;2024-03-08T05:06:28;100159.53;;;1.00;100.00
46087;BME280;31824;49.648;8.640;2024-03-08T05:09:33;100149.63;;;1.11;100.00
46087;BME280;31824;49.648;8.640;2024-03-08T05:12:35;100154.28;;;1.13;100.00
46087;BME280;31824;49.648;8.640;2024-03-08T05:15:37;100155.78;;;0.91;100.00
46087;BME280;31824;49.648;8.640;2024-03-08T05:18:40;100159.03;;;0.83;100.00
46087;BME280;31824;49.648;8.640;2024-03-08T05:21:43;100155.31;;;0.81;100.00
46087;BME280;31824;49.648;8.640;2024-03-08T05:24:47;100148.94;;;0.92;100.00
46087;BME280;31824;49.648;8.640;2024-03-08T05:27:49;100145.19;;;0.90;100.00
46087;BME280;31824;49.648;8.640;2024-03-08T05:30:50;100145.81;;;0.94;100.00
46087;BME280;31824;49.648;8.640;2024-03-08T05:33:52;100141.91;;;1.18;100.00
46087;BME280;31824;49.648;8.640;2024-03-08T05:36:56;100146.75;;;1.22;100.00
46087;BME280;31824;49.648;8.640;2024-03-08T05:40:01;100137.97;;;1.07;100.00
46087;BME280;31824;49.648;8.640;2024-03-08T05:43:03;100138.06;;;0.94;100.00
46087;BME280;31824;49.648;8.640;2024-03-08T05:46:05;100133.56;;;0.86;100.00
46087;BME280;31824;49.648;8.640;2024-03-08T05:49:07;100131.13;;;0.80;100.00
46087;BME280;31824;49.648;8.640;2024-03-08T05:52:12;100132.16;;;0.95;100.00
46087;BME280;31824;49.648;8.640;2024-03-08T05:55:15;100140.19;;;0.84;100.00
46087;BME280;31824;49.648;8.640;2024-03-08T05:58:17;100135.91;;;1.05;100.00
46087;BME280;31824;49.648;8.640;2024-03-08T06:01:19;100139.31;;;0.91;100.00
46087;BME280;31824;49.648;8.640;2024-03-08T06:04:21;100131.16;;;0.88;100.00
46087;BME280;31824;49.648;8.640;2024-03-08T06:07:22;100137.53;;;0.77;100.00
46087;BME280;31824;49.648;8.640;2024-03-08T06:10:26;100131.97;;;0.74;100.00
46087;BME280;31824;49.648;8.640;2024-03-08T06:13:28;100141.69;;;0.89;100.00
46087;BME280;31824;49.648;8.640;2024-03-08T06:16:32;100134.75;;;0.95;100.00
46087;BME280;31824;49.648;8.640;2024-03-08T06:19:35;100133.28;;;0.97;100.00
46087;BME280;31824;49.648;8.640;2024-03-08T06:22:37;100137.09;;;0.94;100.00
46087;BME280;31824;49.648;8.640;2024-03-08T06:25:43;100136.19;;;0.93;100.00
46087;BME280;31824;49.648;8.640;2024-03-08T06:28:45;100128.91;;;1.04;100.00
46087;BME280;31824;49.648;8.640;2024-03-08T06:31:47;100123.09;;;1.19;100.00
46087;BME280;31824;49.648;8.640;2024-03-08T06:34:49;100116.81;;;1.17;100.00
46087;BME280;31824;49.648;8.640;2024-03-08T06:37:51;100122.88;;;1.17;100.00
46087;BME280;31824;49.648;8.640;2024-03-08T06:40:54;100121.69;;;1.28;100.00
46087;BME280;31824;49.648;8.640;2024-03-08T06:43:56;100115.81;;;1.37;100.00
46087;BME280;31824;49.648;8.640;2024-03-08T06:46:59;100120.94;;;1.64;100.00
46087;BME280;31824;49.648;8.640;2024-03-08T06:50:02;100120.25;;;1.72;100.00
46087;BME280;31824;49.648;8.640;2024-03-08T06:53:04;100123.38;;;1.69;100.00
46087;BME280;31824;49.648;8.640;2024-03-08T06:56:07;100115.28;;;1.81;100.00
46087;BME280;31824;49.648;8.640;2024-03-08T06:59:10;100113.97;;;2.19;100.00
46087;BME280;31824;49.648;8.640;2024-03-08T07:02:14;100114.63;;;1.96;100.00
46087;BME280;31824;49.648;8.640;2024-03-08T07:05:16;100110.88;;;1.87;100.00
46087;BME280;31824;49.648;8.640;2024-03-08T07:08:18;100104.09;;;2.02;100.00
46087;BME280;31824;49.648;8.640;2024-03-08T07:11:21;100116.34;;;2.17;100.00
46087;BME280;31824;49.648;8.640;2024-03-08T07:14:24;100104.75;;;2.35;100.00
46087;BME280;31824;49.648;8.640;2024-03-08T07:17:25;100100.31;;;2.56;100.00
46087;BME280;31824;49.648;8.640;2024-03-08T07:20:27;100100.69;;;2.66;100.00
46087;BME280;31824;49.648;8.640;2024-03-08T07:23:30;100101.06;;;2.77;100.00
46087;BME280;31824;49.648;8.640;2024-03-08T07:26:52;100098.28;;;2.82;100.00
46087;BME280;31824;49.648;8.640;2024-03-08T07:29:53;100095.91;;;2.91;100.00
46087;BME280;31824;49.648;8.640;2024-03-08T07:33:00;100087.13;;;3.12;100.00
46087;BME280;31824;49.648;8.640;2024-03-08T07:36:04;100083.78;;;3.20;100.00
46087;BME280;31824;49.648;8.640;2024-03-08T07:39:06;100088.44;;;3.16;100.00
46087;BME280;31824;49.648;8.640;2024-03-08T07:42:14;100088.97;;;3.28;100.00
46087;BME280;31824;49.648;8.640;2024-03-08T07:45:17;100087.84;;;3.40;100.00
46087;BME280;31824;49.648;8.640;2024-03-08T07:48:20;100090.78;;;3.43;100.00
46087;BME280;31824;49.648;8.640;2024-03-08T07:51:22;100089.66;;;3.55;100.00
46087;BME280;31824;49.648;8.640;2024-03-08T07:54:24;100085.38;;;3.56;100.00
46087;BME280;31824;49.648;8.640;2024-03-08T07:57:29;100076.06;;;3.65;100.00
46087;BME280;31824;49.648;8.640;2024-03-08T08:00:31;100063.38;;;3.83;100.00
46087;BME280;31824;49.648;8.640;2024-03-08T08:03:33;100074.44;;;3.96;100.00
46087;BME280;31824;49.648;8.640;2024-03-08T08:06:35;100055.78;;;4.15;100.00
46087;BME280;31824;49.648;8.640;2024-03-08T08:09:38;100062.03;;;4.24;100.00
46087;BME280;31824;49.648;8.640;2024-03-08T08:12:41;100054.94;;;4.30;100.00
46087;BME280;31824;49.648;8.640;2024-03-08T08:15:43;100044.88;;;4.33;100.00
46087;BME280;31824;49.648;8.640;2024-03-08T08:18:45;100035.28;;;4.48;100.00
46087;BME280;31824;49.648;8.640;2024-03-08T08:21:47;100043.75;;;4.62;100.00
46087;BME280;31824;49.648;8.640;2024-03-08T08:24:50;100044.13;;;4.81;100.00
46087;BME280;31824;49.648;8.640;2024-03-08T08:27:53;100046.31;;;4.85;100.00
46087;BME280;31824;49.648;8.640;2024-03-08T08:30:55;100035.34;;;4.87;100.00
46087;BME280;31824;49.648;8.640;2024-03-08T08:34:00;100029.31;;;4.96;100.00
46087;BME280;31824;49.648;8.640;2024-03-08T08:37:02;100030.78;;;5.17;100.00
46087;BME280;31824;49.648;8.640;2024-03-08T08:40:04;100022.56;;;5.21;100.00
46087;BME280;31824;49.648;8.640;2024-03-08T08:43:11;100023.22;;;5.27;100.00
46087;BME280;31824;49.648;8.640;2024-03-08T08:46:13;100022.47;;;5.44;100.00
46087;BME280;31824;49.648;8.640;2024-03-08T08:49:15;100028.44;;;5.43;100.00
46087;BME280;31824;49.648;8.640;2024-03-08T08:52:17;100023.28;;;5.52;100.00
46087;BME280;31824;49.648;8.640;2024-03-08T08:55:20;100020.19;;;5.63;100.00
46087;BME280;31824;49.648;8.640;2024-03-08T08:58:24;100015.78;;;5.71;100.00
46087;BME280;31824;49.648;8.640;2024-03-08T09:01:26;100004.63;;;5.72;100.00
46087;BME280;31824;49.648;8.640;2024-03-08T09:04:28;100005.06;;;5.92;100.00
46087;BME280;31824;49.648;8.640;2024-03-08T09:07:30;99994.41;;;5.98;100.00
46087;BME280;31824;49.648;8.640;2024-03-08T09:10:32;99995.16;;;5.97;100.00
46087;BME280;31824;49.648;8.640;2024-03-08T09:13:37;99994.66;;;6.08;100.00
46087;BME280;31824;49.648;8.640;2024-03-08T09:16:39;99980.47;;;5.98;100.00
46087;BME280;31824;49.648;8.640;2024-03-08T09:19:41;99986.53;;;6.14;100.00
46087;BME280;31824;49.648;8.640;2024-03-08T09:22:43;99973.63;;;6.40;100.00
46087;BME280;31824;49.648;8.640;2024-03-08T09:25:45;99969.22;;;6.39;100.00
46087;BME280;31824;49.648;8.640;2024-03-08T09:28:50;99968.41;;;6.40;100.00
46087;BME280;31824;49.648;8.640;2024-03-08T09:31:52;99962.22;;;6.56;100.00
46087;BME280;31824;49.648;8.640;2024-03-08T09:34:54;99961.47;;;6.66;100.00
46087;BME280;31824;49.648;8.640;2024-03-08T09:37:57;99953.50;;;6.31;100.00
46087;BME280;31824;49.648;8.640;2024-03-08T09:40:59;99941.84;;;6.36;100.00
46087;BME280;31824;49.648;8.640;2024-03-08T09:44:05;99941.41;;;6.82;100.00
46087;BME280;31824;49.648;8.640;2024-03-08T09:47:07;99946.56;;;6.65;100.00
46087;BME280;31824;49.648;8.640;2024-03-08T09:50:11;99945.97;;;6.67;100.00
46087;BME280;31824;49.648;8.640;2024-03-08T09:53:15;99937.69;;;6.63;100.00
46087;BME280;31824;49.648;8.640;2024-03-08T09:56:18;99947.72;;;6.93;100.00
46087;BME280;31824;49.648;8.640;2024-03-08T09:59:21;99927.31;;;6.98;100.00
46087;BME280;31824;49.648;8.640;2024-03-08T10:02:29;99933.91;;;6.94;100.00
46087;BME280;31824;49.648;8.640;2024-03-08T10:05:31;99935.00;;;7.14;100.00
46087;BME280;31824;49.648;8.640;2024-03-08T10:08:35;99940.84;;;7.02;100.00
46087;BME280;31824;49.648;8.640;2024-03-08T10:11:38;99938.88;;;7.17;100.00
46087;BME280;31824;49.648;8.640;2024-03-08T10:14:43;99930.25;;;7.09;100.00
46087;BME280;31824;49.648;8.640;2024-03-08T10:17:45;99929.22;;;7.42;100.00
46087;BME280;31824;49.648;8.640;2024-03-08T10:21:02;99935.47;;;7.80;100.00
46087;BME280;31824;49.648;8.640;2024-03-08T10:24:05;99922.28;;;7.25;100.00
46087;BME280;31824;49.648;8.640;2024-03-08T10:27:07;99923.94;;;7.60;100.00
46087;BME280;31824;49.648;8.640;2024-03-08T10:30:14;99919.94;;;7.72;100.00
46087;BME280;31824;49.648;8.640;2024-03-08T10:33:17;99928.53;;;7.80;100.00
46087;BME280;31824;49.648;8.640;2024-03-08T10:36:19;99919.63;;;7.87;100.00
46087;BME280;31824;49.648;8.640;2024-03-08T10:39:23;99912.91;;;8.17;100.00
46087;BME280;31824;49.648;8.640;2024-03-08T10:42:28;99900.25;;;7.76;100.00
46087;BME280;31824;49.648;8.640;2024-03-08T10:45:35;99907.91;;;7.92;100.00
46087;BME280;31824;49.648;8.640;2024-03-08T10:48:43;99906.63;;;8.15;100.00
46087;BME280;31824;49.648;8.640;2024-03-08T10:51:45;99906.38;;;8.39;100.00
46087;BME280;31824;49.648;8.640;2024-03-08T10:54:49;99906.03;;;8.54;100.00
46087;BME280;31824;49.648;8.640;2024-03-08T10:57:54;99902.00;;;8.57;100.00
46087;BME280;31824;49.648;8.640;2024-03-08T11:00:57;99899.41;;;8.57;100.00
46087;BME280;31824;49.648;8.640;2024-03-08T11:03:59;99887.13;;;8.75;100.00
46087;BME280;31824;49.648;8.640;2024-03-08T11:07:02;99895.84;;;8.85;100.00
46087;BME280;31824;49.648;8.640;2024-03-08T11:10:18;99890.59;;;8.85;100.00
46087;BME280;31824;49.648;8.640;2024-03-08T11:13:33;99881.00;;;8.94;100.00
46087;BME280;31824;49.648;8.640;2024-03-08T11:16:38;99881.75;;;8.93;100.00
46087;BME280;31824;49.648;8.640;2024-03-08T11:19:46;99880.00;;;9.02;100.00
46087;BME280;31824;49.648;8.640;2024-03-08T11:22:49;99874.50;;;9.18;100.00
46087;BME280;31824;49.648;8.640;2024-03-08T11:25:53;99870.00;;;9.55;100.00
46087;BME280;31824;49.648;8.640;2024-03-08T11:28:55;99863.94;;;9.08;100.00
46087;BME280;31824;49.648;8.640;2024-03-08T11:32:05;99867.28;;;9.16;100.00
46087;BME280;31824;49.648;8.640;2024-03-08T11:35:18;99864.34;;;9.51;100.00
46087;BME280;31824;49.648;8.640;2024-03-08T11:38:20;99851.03;;;9.68;100.00
46087;BME280;31824;49.648;8.640;2024-03-08T11:41:23;99851.22;;;9.80;100.00
46087;BME280;31824;49.648;8.640;2024-03-08T11:44:26;99849.50;;;10.00;100.00
46087;BME280;31824;49.648;8.640;2024-03-08T11:47:30;99843.16;;;9.97;100.00
46087;BME280;31824;49.648;8.640;2024-03-08T11:50:33;99847.13;;;10.42;100.00
46087;BME280;31824;49.648;8.640;2024-03-08T11:53:35;99840.06;;;10.12;100.00
46087;BME280;31824;49.648;8.640;2024-03-08T11:56:38;99831.16;;;10.20;100.00
46087;BME280;31824;49.648;8.640;2024-03-08T11:59:40;99832.63;;;10.27;100.00
46087;BME280;31824;49.648;8.640;2024-03-08T12:02:43;99822.97;;;10.46;100.00
46087;BME280;31824;49.648;8.640;2024-03-08T12:05:57;99814.28;;;10.58;100.00
46087;BME280;31824;49.648;8.640;2024-03-08T12:09:01;99797.63;;;10.78;100.00
46087;BME280;31824;49.648;8.640;2024-03-08T12:12:06;99793.81;;;10.95;100.00
46087;BME280;31824;49.648;8.640;2024-03-08T12:15:09;99797.69;;;11.21;100.00
46087;BME280;31824;49.648;8.640;2024-03-08T12:18:14;99787.34;;;11.02;100.00
46087;BME280;31824;49.648;8.640;2024-03-08T12:21:16;99781.94;;;11.00;100.00
46087;BME280;31824;49.648;8.640;2024-03-08T12:24:26;99777.13;;;11.37;100.00
46087;BME280;31824;49.648;8.640;2024-03-08T12:27:28;99774.03;;;11.53;100.00
46087;BME280;31824;49.648;8.640;2024-03-08T12:30:33;99762.03;;;12.11;100.00
46087;BME280;31824;49.648;8.640;2024-03-08T12:33:37;99769.13;;;12.35;100.00
46087;BME280;31824;49.648;8.640;2024-03-08T12:36:44;99760.16;;;11.98;100.00
46087;BME280;31824;49.648;8.640;2024-03-08T12:39:46;99754.38;;;12.37;100.00
46087;BME280;31824;49.648;8.640;2024-03-08T12:42:48;99744.72;;;12.37;100.00
46087;BME280;31824;49.648;8.640;2024-03-08T12:45:50;99742.94;;;11.92;100.00
46087;BME280;31824;49.648;8.640;2024-03-08T12:48:54;99745.63;;;12.26;100.00
46087;BME280;31824;49.648;8.640;2024-03-08T12:51:56;99732.16;;;12.11;100.00
46087;BME280;31824;49.648;8.640;2024-03-08T12:54:58;99727.78;;;13.03;100.00
46087;BME280;31824;49.648;8.640;2024-03-08T12:58:04;99735.44;;;12.76;100.00
46087;BME280;31824;49.648;8.640;2024-03-08T13:01:08;99723.50;;;12.70;100.00
46087;BME280;31824;49.648;8.640;2024-03-08T13:04:12;99713.13;;;13.42;100.00
46087;BME280;31824;49.648;8.640;2024-03-08T13:07:15;99705.53;;;13.23;100.00
46087;BME280;31824;49.648;8.640;2024-03-08T13:10:18;99701.28;;;12.54;100.00
46087;BME280;31824;49.648;8.640;2024-03-08T13:13:22;99692.66;;;12.45;100.00
46087;BME280;31824;49.648;8.640;2024-03-08T13:16:24;99684.22;;;12.96;100.00
46087;BME280;31824;49.648;8.640;2024-03-08T13:19:27;99679.19;;;13.97;100.00
46087;BME280;31824;49.648;8.640;2024-03-08T13:22:29;99680.75;;;13.45;100.00
46087;BME280;31824;49.648;8.640;2024-03-08T13:25:31;99670.72;;;13.90;100.00
46087;BME280;31824;49.648;8.640;2024-03-08T13:28:33;99666.03;;;13.60;100.00
46087;BME280;31824;49.648;8.640;2024-03-08T13:31:38;99651.28;;;13.76;100.00
46087;BME280;31824;49.648;8.640;2024-03-08T13:34:43;99657.31;;;13.61;100.00
46087;BME280;31824;49.648;8.640;2024-03-08T13:37:45;99649.19;;;13.83;100.00
46087;BME280;31824;49.648;8.640;2024-03-08T13:40:47;99649.22;;;13.11;100.00
46087;BME280;31824;49.648;8.640;2024-03-08T13:43:53;99648.97;;;14.44;100.00
46087;BME280;31824;49.648;8.640;2024-03-08T13:46:55;99637.78;;;12.98;100.00
46087;BME280;31824;49.648;8.640;2024-03-08T13:50:01;99638.75;;;13.48;100.00
46087;BME280;31824;49.648;8.640;2024-03-08T13:53:03;99622.47;;;14.69;100.00
46087;BME280;31824;49.648;8.640;2024-03-08T13:56:06;99628.09;;;14.35;100.00
46087;BME280;31824;49.648;8.640;2024-03-08T13:59:10;99615.78;;;14.88;100.00
46087;BME280;31824;49.648;8.640;2024-03-08T14:02:11;99605.00;;;14.72;100.00
46087;BME280;31824;49.648;8.640;2024-03-08T14:05:16;99599.03;;;15.29;100.00
46087;BME280;31824;49.648;8.640;2024-03-08T14:08:21;99600.53;;;15.67;100.00
46087;BME280;31824;49.648;8.640;2024-03-08T14:11:23;99599.41;;;14.80;100.00
46087;BME280;31824;49.648;8.640;2024-03-08T14:14:25;99587.06;;;14.94;100.00
46087;BME280;31824;49.648;8.640;2024-03-08T14:17:27;99575.00;;;15.26;100.00
46087;BME280;31824;49.648;8.640;2024-03-08T14:20:33;99580.91;;;14.15;100.00
46087;BME280;31824;49.648;8.640;2024-03-08T14:23:36;99576.53;;;14.15;100.00
46087;BME280;31824;49.648;8.640;2024-03-08T14:26:37;99571.84;;;15.89;100.00
46087;BME280;31824;49.648;8.640;2024-03-08T14:29:40;99563.84;;;15.74;100.00
46087;BME280;31824;49.648;8.640;2024-03-08T14:32:41;99559.78;;;15.94;100.00
46087;BME280;31824;49.648;8.640;2024-03-08T14:35:45;99559.09;;;16.73;100.00
46087;BME280;31824;49.648;8.640;2024-03-08T14:38:48;99547.53;;;15.52;100.00
46087;BME280;31824;49.648;8.640;2024-03-08T14:41:50;99560.97;;;15.99;100.00
46087;BME280;31824;49.648;8.640;2024-03-08T14:44:55;99553.91;;;16.74;100.00
46087;BME280;31824;49.648;8.640;2024-03-08T14:47:58;99553.84;;;14.44;100.00
46087;BME280;31824;49.648;8.640;2024-03-08T14:51:03;99542.34;;;15.69;100.00
46087;BME280;31824;49.648;8.640;2024-03-08T14:54:05;99541.34;;;15.95;100.00
46087;BME280;31824;49.648;8.640;2024-03-08T14:57:08;99533.47;;;16.42;100.00
46087;BME280;31824;49.648;8.640;2024-03-08T15:00:10;99544.91;;;16.26;100.00
46087;BME280;31824;49.648;8.640;2024-03-08T15:03:17;99532.59;;;16.58;100.00
46087;BME280;31824;49.648;8.640;2024-03-08T15:06:23;99527.25;;;15.38;100.00
46087;BME280;31824;49.648;8.640;2024-03-08T15:09:26;99530.59;;;15.79;100.00
46087;BME280;31824;49.648;8.640;2024-03-08T15:12:28;99530.03;;;14.71;100.00
46087;BME280;31824;49.648;8.640;2024-03-08T15:15:30;99520.19;;;14.55;100.00
46087;BME280;31824;49.648;8.640;2024-03-08T15:18:34;99519.25;;;14.01;100.00
46087;BME280;31824;49.648;8.640;2024-03-08T15:21:39;99508.91;;;14.71;100.00
46087;BME280;31824;49.648;8.640;2024-03-08T15:24:41;99498.13;;;15.10;100.00
46087;BME280;31824;49.648;8.640;2024-03-08T15:27:44;99492.84;;;14.41;100.00
46087;BME280;31824;49.648;8.640;2024-03-08T15:30:47;99498.03;;;14.66;100.00
46087;BME280;31824;49.648;8.640;2024-03-08T15:33:53;99486.66;;;14.67;100.00
46087;BME280;31824;49.648;8.640;2024-03-08T15:37:04;99492.94;;;14.16;100.00
46087;BME280;31824;49.648;8.640;2024-03-08T15:40:08;99487.31;;;13.46;100.00
46087;BME280;31824;49.648;8.640;2024-03-08T15:43:13;99480.16;;;13.06;100.00
46087;BME280;31824;49.648;8.640;2024-03-08T15:46:17;99476.84;;;12.48;100.00
46087;BME280;31824;49.648;8.640;2024-03-08T15:49:23;99477.78;;;12.48;100.00
46087;BME280;31824;49.648;8.640;2024-03-08T15:52:29;99469.91;;;12.25;100.00
46087;BME280;31824;49.648;8.640;2024-03-08T15:55:31;99462.22;;;12.28;100.00
46087;BME280;31824;49.648;8.640;2024-03-08T15:58:34;99467.47;;;12.28;100.00
46087;BME280;31824;49.648;8.640;2024-03-08T16:01:39;99462.47;;;12.19;100.00